AirNav   Phillips 66 Aviation Fuel
 
 1557 users online  

MY50 Frontenac Airport
Frontenac, Minnesota, USA

GOING TO FRONTENAC?


FAA INFORMATION EFFECTIVE 20 JULY 2017

Location

FAA Identifier: MY50
Lat/Long: 44-30-09.8830N / 092-21-40.6540W
44-30.164717N / 092-21.677567W
44.5027453 / -92.3612928
(estimated)
Elevation: 793 ft. / 242 m (estimated)
Variation: 02E (1985)
From city: 1 mile S of FRONTENAC, MN
Time zone: UTC -5 (UTC -6 during Standard Time)
Zip code: 55041

Airport Operations

Airport use: Private use, PERSONAL USE.
Activation date: 10/1982
Control tower: no
ARTCC: MINNEAPOLIS CENTER
FSS: PRINCETON FLIGHT SERVICE STATION
Attendance: UNATNDD
Wind indicator: yes
Segmented circle: no

Airport Communications

WX AWOS-3 at RGK (7 nm NW): 119.25 (715-594-3763)

Nearby radio navigation aids

VOR radial/distance  VOR name  Freq  Var
FGTr096/35.9FARMINGTON VORTAC115.7006E
ONAr311/38.0WINONA VOR/DME111.4001E

 
NDB name  Hdg/Dist  Freq  Var  ID
HOPEY129/33.340003EPPI .--. .--. ..

Airport Services

Runway Information

Runway 13/31

Dimensions: 2000 x 60 ft. / 610 x 18 m
Surface: turf
RUNWAY 13  RUNWAY 31
Traffic pattern: leftleft
Obstructions: 15 ft. road, 500 ft. from runway
POWERLINES 1000' FM RWY END.
25 ft. trees, 500 ft. from runway
AND BLDGS.

Airport Ownership and Management from official FAA records

Ownership: Privately-owned
Owner: LARRY GETCHELL
29476 LAKE AVE.
FRONTENAC, MN 55026
Phone 612-345-4882

Airport Operational Statistics

Aircraft based on the field: 1
Single engine airplanes: 1
    

Instrument Procedures

There are no published instrument procedures at MY50.

Some nearby airports with instrument procedures:

KRGK - Red Wing Regional Airport (7 nm NW)
KLUM - Menomonie Municipal Airport-Score Field (31 nm NE)
KTOB - Dodge Center Airport (35 nm SW)
3T3 - Boyceville Municipal Airport (36 nm NE)
KSGS - South St Paul Municipal Airport-Richard E Fleming Field (36 nm NW)
 
Loc | Ops | Rwys | IFR | FBO | Links
Com | Nav | Svcs | Stats | Notes


 
Area around MY50 (Frontenac Airport)
 
Road maps at: MapQuest Bing Google
 
Aerial photo
No photo
 
Sectional chart

 
Airport distance calculator
Flying to Frontenac Airport? Find the distance to fly.

From to MY50

Sunrise and sunset
Times for 27-Jul-2017
 Local
(UTC-5)
 Zulu
(UTC)
Morning civil twilight05:1810:18
Sunrise05:5210:52
Sunset20:4001:40
Evening civil twilight21:1402:14

Current date and time
Zulu (UTC)  27-Jul-2017 15:22:22
Local (UTC-5)  27-Jul-2017 10:22:22
 
METAR
KRGK 
6nm NW 
271455Z AUTO 03003KT 10SM CLR 24/17 A3005 RMK AO2
TAF
KRST 
37nm S 
271120Z 2712/2812 01007KT P6SM SKC FM271700 02011KT P6SM SCT040 FM280100 02005KT P6SM SKC
KRNH 
40nm N 
271136Z 2712/2812 36005KT P6SM SKC FM272000 01005KT P6SM SCT060 FM280300 00000KT P6SM SKC TEMPO 2809/2812 3SM MIFG
KMSP 
44nm NW 
271408Z 2714/2818 03005KT P6SM SKC FM271800 03008KT P6SM SCT060 FM280400 03004KT P6SM SKC
KEAU 
44nm NE 
271120Z 2712/2812 01004KT P6SM SKC TEMPO 2712/2713 3SM MIFG SCT002 FM272000 01007KT P6SM SCT060 FM280300 00000KT P6SM SKC TEMPO 2808/2812 1SM MIFG
NOTAMs
Click for the latest NOTAMs
NOTAMs are issued by the DoD/FAA and will open in a separate window not controlled by AirNav.

 

 
 

Would you like to see your business listed on this page?

 If your business provides an interesting product or service to pilots, flight crews, aircraft, or users of the Frontenac Airport, you should consider listing it here.  To start the listing process, click on the button below
 
Add a business
 

Other Pages about Frontenac Airport

Update a link
 
Copyright © AirNav, LLC. All rights reserved. Privacy Policy  Contact